sensor_id;sensor_type;location;lat;lon;timestamp;P1;durP1;ratioP1;P2;durP2;ratioP2
27491;SDS011;14927;51.210;6.838;2023-10-31T00:01:22;0.95;;;0.60;;
27491;SDS011;14927;51.210;6.838;2023-10-31T00:04:07;1.02;;;0.50;;
27491;SDS011;14927;51.210;6.838;2023-10-31T00:06:51;0.47;;;0.47;;
27491;SDS011;14927;51.210;6.838;2023-10-31T00:09:36;0.40;;;0.40;;
27491;SDS011;14927;51.210;6.838;2023-10-31T00:12:23;0.40;;;0.40;;
27491;SDS011;14927;51.210;6.838;2023-10-31T00:15:07;2.80;;;0.60;;
27491;SDS011;14927;51.210;6.838;2023-10-31T00:20:59;0.80;;;0.50;;
27491;SDS011;14927;51.210;6.838;2023-10-31T00:23:45;0.98;;;0.60;;
27491;SDS011;14927;51.210;6.838;2023-10-31T00:26:30;0.80;;;0.80;;
27491;SDS011;14927;51.210;6.838;2023-10-31T00:29:15;0.60;;;0.60;;
27491;SDS011;14927;51.210;6.838;2023-10-31T00:32:01;1.48;;;0.70;;
27491;SDS011;14927;51.210;6.838;2023-10-31T00:34:45;1.00;;;0.60;;
27491;SDS011;14927;51.210;6.838;2023-10-31T00:37:30;0.85;;;0.70;;
27491;SDS011;14927;51.210;6.838;2023-10-31T00:40:15;0.57;;;0.57;;
27491;SDS011;14927;51.210;6.838;2023-10-31T00:43:00;0.60;;;0.60;;
27491;SDS011;14927;51.210;6.838;2023-10-31T00:45:44;0.85;;;0.63;;
27491;SDS011;14927;51.210;6.838;2023-10-31T00:48:29;2.25;;;0.70;;
27491;SDS011;14927;51.210;6.838;2023-10-31T00:51:15;1.23;;;0.60;;
27491;SDS011;14927;51.210;6.838;2023-10-31T00:54:00;0.82;;;0.55;;
27491;SDS011;14927;51.210;6.838;2023-10-31T00:56:45;2.08;;;0.60;;
27491;SDS011;14927;51.210;6.838;2023-10-31T00:59:30;0.60;;;0.60;;
27491;SDS011;14927;51.210;6.838;2023-10-31T01:02:14;1.30;;;0.43;;
27491;SDS011;14927;51.210;6.838;2023-10-31T01:04:59;2.40;;;0.60;;
27491;SDS011;14927;51.210;6.838;2023-10-31T01:07:44;1.25;;;0.55;;
27491;SDS011;14927;51.210;6.838;2023-10-31T01:10:28;0.75;;;0.50;;
27491;SDS011;14927;51.210;6.838;2023-10-31T01:13:13;1.60;;;0.70;;
27491;SDS011;14927;51.210;6.838;2023-10-31T01:15:58;1.67;;;0.60;;
27491;SDS011;14927;51.210;6.838;2023-10-31T01:18:42;1.88;;;1.10;;
27491;SDS011;14927;51.210;6.838;2023-10-31T01:21:27;1.90;;;0.73;;
27491;SDS011;14927;51.210;6.838;2023-10-31T01:24:11;1.10;;;0.60;;
27491;SDS011;14927;51.210;6.838;2023-10-31T01:26:56;2.72;;;0.98;;
27491;SDS011;14927;51.210;6.838;2023-10-31T01:29:40;1.98;;;0.90;;
27491;SDS011;14927;51.210;6.838;2023-10-31T01:32:25;4.55;;;1.48;;
27491;SDS011;14927;51.210;6.838;2023-10-31T01:35:10;3.03;;;1.38;;
27491;SDS011;14927;51.210;6.838;2023-10-31T01:37:54;3.67;;;1.38;;
27491;SDS011;14927;51.210;6.838;2023-10-31T01:40:39;3.15;;;1.20;;
27491;SDS011;14927;51.210;6.838;2023-10-31T01:43:30;3.30;;;1.30;;
27491;SDS011;14927;51.210;6.838;2023-10-31T01:46:19;2.53;;;1.55;;
27491;SDS011;14927;51.210;6.838;2023-10-31T01:49:04;3.70;;;1.60;;
27491;SDS011;14927;51.210;6.838;2023-10-31T01:51:49;3.72;;;1.55;;
27491;SDS011;14927;51.210;6.838;2023-10-31T01:54:34;2.35;;;1.70;;
27491;SDS011;14927;51.210;6.838;2023-10-31T01:57:19;4.13;;;1.63;;
27491;SDS011;14927;51.210;6.838;2023-10-31T02:00:05;3.65;;;2.00;;
27491;SDS011;14927;51.210;6.838;2023-10-31T02:02:51;4.63;;;1.80;;
27491;SDS011;14927;51.210;6.838;2023-10-31T02:05:37;6.80;;;2.15;;
27491;SDS011;14927;51.210;6.838;2023-10-31T02:08:22;6.20;;;2.20;;
27491;SDS011;14927;51.210;6.838;2023-10-31T02:11:07;7.93;;;2.42;;
27491;SDS011;14927;51.210;6.838;2023-10-31T02:13:53;6.38;;;2.55;;
27491;SDS011;14927;51.210;6.838;2023-10-31T02:16:38;4.68;;;2.17;;
27491;SDS011;14927;51.210;6.838;2023-10-31T02:19:23;6.45;;;2.42;;
27491;SDS011;14927;51.210;6.838;2023-10-31T02:22:07;5.95;;;2.40;;
27491;SDS011;14927;51.210;6.838;2023-10-31T02:24:52;3.75;;;1.67;;
27491;SDS011;14927;51.210;6.838;2023-10-31T02:27:36;2.95;;;1.60;;
27491;SDS011;14927;51.210;6.838;2023-10-31T02:30:21;4.82;;;2.70;;
27491;SDS011;14927;51.210;6.838;2023-10-31T02:33:06;10.60;;;3.13;;
27491;SDS011;14927;51.210;6.838;2023-10-31T02:35:50;7.13;;;3.60;;
27491;SDS011;14927;51.210;6.838;2023-10-31T02:38:35;5.82;;;3.70;;
27491;SDS011;14927;51.210;6.838;2023-10-31T02:41:19;6.72;;;4.03;;
27491;SDS011;14927;51.210;6.838;2023-10-31T02:44:04;8.48;;;4.47;;
27491;SDS011;14927;51.210;6.838;2023-10-31T02:46:48;7.32;;;4.18;;
27491;SDS011;14927;51.210;6.838;2023-10-31T02:49:33;5.93;;;3.95;;
27491;SDS011;14927;51.210;6.838;2023-10-31T02:52:18;10.27;;;4.60;;
27491;SDS011;14927;51.210;6.838;2023-10-31T02:55:02;7.97;;;4.05;;
27491;SDS011;14927;51.210;6.838;2023-10-31T02:57:47;7.97;;;4.28;;
27491;SDS011;14927;51.210;6.838;2023-10-31T03:00:32;6.85;;;3.95;;
27491;SDS011;14927;51.210;6.838;2023-10-31T03:03:16;7.10;;;3.88;;
27491;SDS011;14927;51.210;6.838;2023-10-31T03:06:01;5.00;;;3.42;;
27491;SDS011;14927;51.210;6.838;2023-10-31T03:08:45;6.53;;;3.45;;
27491;SDS011;14927;51.210;6.838;2023-10-31T03:11:30;6.18;;;3.42;;
27491;SDS011;14927;51.210;6.838;2023-10-31T03:14:16;6.72;;;3.55;;
27491;SDS011;14927;51.210;6.838;2023-10-31T03:17:01;5.75;;;3.47;;
27491;SDS011;14927;51.210;6.838;2023-10-31T03:19:45;6.68;;;3.75;;
27491;SDS011;14927;51.210;6.838;2023-10-31T03:22:30;5.15;;;3.58;;
27491;SDS011;14927;51.210;6.838;2023-10-31T03:25:15;4.35;;;3.35;;
27491;SDS011;14927;51.210;6.838;2023-10-31T03:27:59;5.00;;;3.72;;
27491;SDS011;14927;51.210;6.838;2023-10-31T03:30:46;8.98;;;4.45;;
27491;SDS011;14927;51.210;6.838;2023-10-31T03:33:31;6.32;;;3.65;;
27491;SDS011;14927;51.210;6.838;2023-10-31T03:36:16;7.40;;;4.20;;
27491;SDS011;14927;51.210;6.838;2023-10-31T03:39:01;6.53;;;3.33;;
27491;SDS011;14927;51.210;6.838;2023-10-31T03:41:45;6.45;;;3.65;;
27491;SDS011;14927;51.210;6.838;2023-10-31T03:44:30;6.68;;;3.78;;
27491;SDS011;14927;51.210;6.838;2023-10-31T03:47:15;8.57;;;3.72;;
27491;SDS011;14927;51.210;6.838;2023-10-31T03:49:59;6.38;;;3.72;;
27491;SDS011;14927;51.210;6.838;2023-10-31T03:52:44;5.20;;;2.70;;
27491;SDS011;14927;51.210;6.838;2023-10-31T03:55:35;5.75;;;3.17;;
27491;SDS011;14927;51.210;6.838;2023-10-31T03:58:34;3.30;;;2.50;;
27491;SDS011;14927;51.210;6.838;2023-10-31T04:01:19;4.07;;;2.25;;
27491;SDS011;14927;51.210;6.838;2023-10-31T04:04:03;5.97;;;2.50;;
27491;SDS011;14927;51.210;6.838;2023-10-31T04:06:48;2.75;;;2.05;;
27491;SDS011;14927;51.210;6.838;2023-10-31T04:09:33;3.83;;;1.80;;
27491;SDS011;14927;51.210;6.838;2023-10-31T04:12:17;3.22;;;2.30;;
27491;SDS011;14927;51.210;6.838;2023-10-31T04:15:02;3.33;;;1.83;;
27491;SDS011;14927;51.210;6.838;2023-10-31T04:17:47;3.85;;;2.22;;
27491;SDS011;14927;51.210;6.838;2023-10-31T04:20:31;5.40;;;2.15;;
27491;SDS011;14927;51.210;6.838;2023-10-31T04:23:16;2.33;;;1.75;;
27491;SDS011;14927;51.210;6.838;2023-10-31T04:26:00;3.28;;;1.92;;
27491;SDS011;14927;51.210;6.838;2023-10-31T04:28:45;3.05;;;2.05;;
27491;SDS011;14927;51.210;6.838;2023-10-31T04:31:29;6.03;;;1.90;;
27491;SDS011;14927;51.210;6.838;2023-10-31T04:34:14;2.40;;;1.73;;
27491;SDS011;14927;51.210;6.838;2023-10-31T04:36:59;4.07;;;1.45;;
27491;SDS011;14927;51.210;6.838;2023-10-31T04:39:43;2.38;;;1.60;;
27491;SDS011;14927;51.210;6.838;2023-10-31T04:42:28;3.35;;;1.55;;
27491;SDS011;14927;51.210;6.838;2023-10-31T04:45:13;3.40;;;1.60;;
27491;SDS011;14927;51.210;6.838;2023-10-31T04:47:57;2.28;;;1.42;;
27491;SDS011;14927;51.210;6.838;2023-10-31T04:50:42;1.98;;;1.65;;
27491;SDS011;14927;51.210;6.838;2023-10-31T04:53:26;1.88;;;1.70;;
27491;SDS011;14927;51.210;6.838;2023-10-31T04:56:12;4.13;;;1.90;;
27491;SDS011;14927;51.210;6.838;2023-10-31T04:58:57;5.05;;;1.83;;
27491;SDS011;14927;51.210;6.838;2023-10-31T05:01:47;2.80;;;1.88;;
27491;SDS011;14927;51.210;6.838;2023-10-31T05:04:33;2.40;;;1.88;;
27491;SDS011;14927;51.210;6.838;2023-10-31T05:07:18;3.75;;;2.42;;
27491;SDS011;14927;51.210;6.838;2023-10-31T05:10:03;3.20;;;2.40;;
27491;SDS011;14927;51.210;6.838;2023-10-31T05:12:48;3.25;;;2.20;;
27491;SDS011;14927;51.210;6.838;2023-10-31T05:15:32;3.15;;;2.35;;
27491;SDS011;14927;51.210;6.838;2023-10-31T05:18:17;5.20;;;2.45;;
27491;SDS011;14927;51.210;6.838;2023-10-31T05:21:02;3.38;;;1.98;;
27491;SDS011;14927;51.210;6.838;2023-10-31T05:23:46;3.28;;;1.90;;
27491;SDS011;14927;51.210;6.838;2023-10-31T05:26:31;2.78;;;2.40;;
27491;SDS011;14927;51.210;6.838;2023-10-31T05:29:15;2.55;;;2.35;;
27491;SDS011;14927;51.210;6.838;2023-10-31T05:32:00;6.00;;;2.28;;
27491;SDS011;14927;51.210;6.838;2023-10-31T05:34:45;5.18;;;2.35;;
27491;SDS011;14927;51.210;6.838;2023-10-31T05:37:29;3.30;;;2.28;;
27491;SDS011;14927;51.210;6.838;2023-10-31T05:40:14;3.92;;;2.17;;
27491;SDS011;14927;51.210;6.838;2023-10-31T05:43:02;3.40;;;2.33;;
27491;SDS011;14927;51.210;6.838;2023-10-31T05:45:46;4.05;;;2.53;;
27491;SDS011;14927;51.210;6.838;2023-10-31T05:48:34;2.60;;;2.40;;
27491;SDS011;14927;51.210;6.838;2023-10-31T05:51:19;5.68;;;2.60;;
27491;SDS011;14927;51.210;6.838;2023-10-31T05:54:03;3.10;;;2.80;;
27491;SDS011;14927;51.210;6.838;2023-10-31T05:56:50;4.80;;;2.80;;
27491;SDS011;14927;51.210;6.838;2023-10-31T05:59:36;3.53;;;2.97;;
27491;SDS011;14927;51.210;6.838;2023-10-31T06:02:20;5.55;;;2.80;;
27491;SDS011;14927;51.210;6.838;2023-10-31T06:05:05;3.17;;;2.35;;
27491;SDS011;14927;51.210;6.838;2023-10-31T06:07:50;2.83;;;2.20;;
27491;SDS011;14927;51.210;6.838;2023-10-31T06:10:35;3.22;;;2.45;;
27491;SDS011;14927;51.210;6.838;2023-10-31T06:13:20;2.63;;;2.28;;
27491;SDS011;14927;51.210;6.838;2023-10-31T06:16:05;2.38;;;2.08;;
27491;SDS011;14927;51.210;6.838;2023-10-31T06:18:51;2.75;;;2.00;;
27491;SDS011;14927;51.210;6.838;2023-10-31T06:21:35;3.28;;;2.13;;
27491;SDS011;14927;51.210;6.838;2023-10-31T06:24:20;3.92;;;2.10;;
27491;SDS011;14927;51.210;6.838;2023-10-31T06:27:04;3.22;;;2.40;;
27491;SDS011;14927;51.210;6.838;2023-10-31T06:29:49;4.38;;;2.58;;
27491;SDS011;14927;51.210;6.838;2023-10-31T06:32:33;4.85;;;2.90;;
27491;SDS011;14927;51.210;6.838;2023-10-31T06:35:18;5.57;;;2.85;;
27491;SDS011;14927;51.210;6.838;2023-10-31T06:38:02;5.72;;;3.90;;
27491;SDS011;14927;51.210;6.838;2023-10-31T06:40:47;4.18;;;3.00;;
27491;SDS011;14927;51.210;6.838;2023-10-31T06:43:32;4.88;;;2.88;;
27491;SDS011;14927;51.210;6.838;2023-10-31T06:46:16;4.80;;;3.55;;
27491;SDS011;14927;51.210;6.838;2023-10-31T06:49:01;3.30;;;3.00;;
27491;SDS011;14927;51.210;6.838;2023-10-31T06:51:45;4.10;;;3.58;;
27491;SDS011;14927;51.210;6.838;2023-10-31T06:54:30;3.83;;;3.28;;
27491;SDS011;14927;51.210;6.838;2023-10-31T06:57:15;5.90;;;3.63;;
27491;SDS011;14927;51.210;6.838;2023-10-31T06:59:59;4.57;;;3.38;;
27491;SDS011;14927;51.210;6.838;2023-10-31T07:02:44;6.07;;;3.63;;
27491;SDS011;14927;51.210;6.838;2023-10-31T07:05:28;3.70;;;3.40;;
27491;SDS011;14927;51.210;6.838;2023-10-31T07:08:13;4.00;;;3.55;;
27491;SDS011;14927;51.210;6.838;2023-10-31T07:10:57;5.05;;;4.20;;
27491;SDS011;14927;51.210;6.838;2023-10-31T07:13:42;5.97;;;4.35;;
27491;SDS011;14927;51.210;6.838;2023-10-31T07:16:28;5.45;;;4.13;;
27491;SDS011;14927;51.210;6.838;2023-10-31T07:19:13;4.15;;;3.28;;
27491;SDS011;14927;51.210;6.838;2023-10-31T07:21:57;6.38;;;3.53;;
27491;SDS011;14927;51.210;6.838;2023-10-31T07:24:42;5.25;;;4.07;;
27491;SDS011;14927;51.210;6.838;2023-10-31T07:27:26;4.43;;;3.60;;
27491;SDS011;14927;51.210;6.838;2023-10-31T07:30:11;4.05;;;3.65;;
27491;SDS011;14927;51.210;6.838;2023-10-31T07:32:56;5.20;;;4.05;;
27491;SDS011;14927;51.210;6.838;2023-10-31T07:35:40;5.07;;;3.95;;
27491;SDS011;14927;51.210;6.838;2023-10-31T07:38:25;4.43;;;3.85;;
27491;SDS011;14927;51.210;6.838;2023-10-31T07:41:09;4.00;;;3.58;;
27491;SDS011;14927;51.210;6.838;2023-10-31T07:43:54;4.13;;;3.45;;
27491;SDS011;14927;51.210;6.838;2023-10-31T07:46:38;5.43;;;4.60;;
27491;SDS011;14927;51.210;6.838;2023-10-31T07:49:23;8.88;;;4.32;;
27491;SDS011;14927;51.210;6.838;2023-10-31T07:52:08;5.75;;;4.03;;
27491;SDS011;14927;51.210;6.838;2023-10-31T07:54:52;7.82;;;5.00;;
27491;SDS011;14927;51.210;6.838;2023-10-31T07:57:37;8.05;;;4.43;;
27491;SDS011;14927;51.210;6.838;2023-10-31T08:00:21;6.53;;;4.57;;
27491;SDS011;14927;51.210;6.838;2023-10-31T08:03:06;5.15;;;4.20;;
27491;SDS011;14927;51.210;6.838;2023-10-31T08:05:50;5.00;;;4.50;;
27491;SDS011;14927;51.210;6.838;2023-10-31T08:08:35;5.22;;;4.70;;
27491;SDS011;14927;51.210;6.838;2023-10-31T08:11:20;4.85;;;4.45;;
27491;SDS011;14927;51.210;6.838;2023-10-31T08:14:04;8.15;;;5.07;;
27491;SDS011;14927;51.210;6.838;2023-10-31T08:16:49;5.05;;;4.55;;
27491;SDS011;14927;51.210;6.838;2023-10-31T08:19:33;8.88;;;4.90;;
27491;SDS011;14927;51.210;6.838;2023-10-31T08:22:18;7.35;;;5.53;;
27491;SDS011;14927;51.210;6.838;2023-10-31T08:25:03;5.72;;;5.10;;
27491;SDS011;14927;51.210;6.838;2023-10-31T08:27:48;5.07;;;4.60;;
27491;SDS011;14927;51.210;6.838;2023-10-31T08:30:32;5.93;;;5.32;;
27491;SDS011;14927;51.210;6.838;2023-10-31T08:33:17;5.20;;;4.70;;
27491;SDS011;14927;51.210;6.838;2023-10-31T08:36:02;5.43;;;4.57;;
27491;SDS011;14927;51.210;6.838;2023-10-31T08:38:46;5.22;;;4.50;;
27491;SDS011;14927;51.210;6.838;2023-10-31T08:41:32;4.97;;;4.30;;
27491;SDS011;14927;51.210;6.838;2023-10-31T08:44:20;6.07;;;4.60;;
27491;SDS011;14927;51.210;6.838;2023-10-31T08:47:05;6.20;;;4.30;;
27491;SDS011;14927;51.210;6.838;2023-10-31T08:49:51;7.95;;;4.68;;
27491;SDS011;14927;51.210;6.838;2023-10-31T08:52:37;6.65;;;4.38;;
27491;SDS011;14927;51.210;6.838;2023-10-31T08:55:32;7.85;;;3.90;;
27491;SDS011;14927;51.210;6.838;2023-10-31T08:58:17;7.43;;;3.58;;
27491;SDS011;14927;51.210;6.838;2023-10-31T09:01:02;4.18;;;3.67;;
27491;SDS011;14927;51.210;6.838;2023-10-31T09:03:46;5.28;;;4.10;;
27491;SDS011;14927;51.210;6.838;2023-10-31T09:06:31;6.55;;;4.30;;
27491;SDS011;14927;51.210;6.838;2023-10-31T09:09:16;5.25;;;3.92;;
27491;SDS011;14927;51.210;6.838;2023-10-31T09:12:00;5.55;;;4.10;;
27491;SDS011;14927;51.210;6.838;2023-10-31T09:14:45;5.25;;;3.80;;
27491;SDS011;14927;51.210;6.838;2023-10-31T09:17:29;5.50;;;4.28;;
27491;SDS011;14927;51.210;6.838;2023-10-31T09:20:14;6.55;;;4.20;;
27491;SDS011;14927;51.210;6.838;2023-10-31T09:22:58;5.75;;;4.10;;
27491;SDS011;14927;51.210;6.838;2023-10-31T09:25:43;4.70;;;4.07;;
27491;SDS011;14927;51.210;6.838;2023-10-31T09:28:28;4.47;;;3.33;;
27491;SDS011;14927;51.210;6.838;2023-10-31T09:31:13;8.27;;;3.17;;
27491;SDS011;14927;51.210;6.838;2023-10-31T09:33:58;5.00;;;3.40;;
27491;SDS011;14927;51.210;6.838;2023-10-31T09:36:42;4.03;;;3.30;;
27491;SDS011;14927;51.210;6.838;2023-10-31T09:39:27;3.40;;;2.60;;
27491;SDS011;14927;51.210;6.838;2023-10-31T09:42:13;8.35;;;2.85;;
27491;SDS011;14927;51.210;6.838;2023-10-31T09:44:57;6.10;;;3.08;;
27491;SDS011;14927;51.210;6.838;2023-10-31T09:47:42;3.67;;;2.65;;
27491;SDS011;14927;51.210;6.838;2023-10-31T09:50:29;4.68;;;2.70;;
27491;SDS011;14927;51.210;6.838;2023-10-31T09:53:15;4.15;;;2.60;;
27491;SDS011;14927;51.210;6.838;2023-10-31T09:56:00;4.43;;;2.47;;
27491;SDS011;14927;51.210;6.838;2023-10-31T09:58:45;6.53;;;2.20;;
27491;SDS011;14927;51.210;6.838;2023-10-31T10:01:31;4.53;;;1.83;;
27491;SDS011;14927;51.210;6.838;2023-10-31T10:04:15;2.70;;;1.85;;
27491;SDS011;14927;51.210;6.838;2023-10-31T10:07:01;5.13;;;2.25;;
27491;SDS011;14927;51.210;6.838;2023-10-31T10:09:47;5.70;;;1.98;;
27491;SDS011;14927;51.210;6.838;2023-10-31T10:12:31;3.50;;;1.88;;
27491;SDS011;14927;51.210;6.838;2023-10-31T10:15:17;3.97;;;2.10;;
27491;SDS011;14927;51.210;6.838;2023-10-31T10:18:02;2.78;;;1.70;;
27491;SDS011;14927;51.210;6.838;2023-10-31T10:20:56;5.40;;;1.70;;
27491;SDS011;14927;51.210;6.838;2023-10-31T10:23:46;2.92;;;1.50;;
27491;SDS011;14927;51.210;6.838;2023-10-31T10:26:33;6.20;;;1.40;;
27491;SDS011;14927;51.210;6.838;2023-10-31T10:29:18;2.85;;;1.65;;
27491;SDS011;14927;51.210;6.838;2023-10-31T10:32:04;5.82;;;1.77;;
27491;SDS011;14927;51.210;6.838;2023-10-31T10:34:52;3.35;;;1.17;;
27491;SDS011;14927;51.210;6.838;2023-10-31T10:37:38;2.75;;;1.20;;
27491;SDS011;14927;51.210;6.838;2023-10-31T10:40:23;3.08;;;1.60;;
27491;SDS011;14927;51.210;6.838;2023-10-31T10:43:15;5.75;;;1.30;;
27491;SDS011;14927;51.210;6.838;2023-10-31T10:46:09;3.83;;;1.58;;
27491;SDS011;14927;51.210;6.838;2023-10-31T10:48:55;4.85;;;1.67;;
27491;SDS011;14927;51.210;6.838;2023-10-31T10:55:13;5.20;;;1.48;;
27491;SDS011;14927;51.210;6.838;2023-10-31T10:58:08;3.42;;;1.20;;
27491;SDS011;14927;51.210;6.838;2023-10-31T11:01:15;3.45;;;1.58;;
27491;SDS011;14927;51.210;6.838;2023-10-31T11:04:01;5.15;;;1.55;;
27491;SDS011;14927;51.210;6.838;2023-10-31T11:06:47;6.00;;;1.40;;
27491;SDS011;14927;51.210;6.838;2023-10-31T11:09:32;2.53;;;1.30;;
27491;SDS011;14927;51.210;6.838;2023-10-31T11:12:17;3.55;;;1.40;;
27491;SDS011;14927;51.210;6.838;2023-10-31T11:15:05;3.83;;;1.33;;
27491;SDS011;14927;51.210;6.838;2023-10-31T11:17:52;7.82;;;1.23;;
27491;SDS011;14927;51.210;6.838;2023-10-31T11:20:39;2.90;;;1.20;;
27491;SDS011;14927;51.210;6.838;2023-10-31T11:23:24;2.95;;;0.98;;
27491;SDS011;14927;51.210;6.838;2023-10-31T11:26:09;2.42;;;0.80;;
27491;SDS011;14927;51.210;6.838;2023-10-31T11:29:04;5.38;;;0.85;;
27491;SDS011;14927;51.210;6.838;2023-10-31T11:31:55;2.65;;;0.93;;
27491;SDS011;14927;51.210;6.838;2023-10-31T11:34:41;1.38;;;0.75;;
27491;SDS011;14927;51.210;6.838;2023-10-31T11:37:26;4.45;;;0.80;;
27491;SDS011;14927;51.210;6.838;2023-10-31T11:43:03;2.20;;;0.90;;
27491;SDS011;14927;51.210;6.838;2023-10-31T11:45:49;4.75;;;1.25;;
27491;SDS011;14927;51.210;6.838;2023-10-31T11:48:47;4.05;;;0.80;;
27491;SDS011;14927;51.210;6.838;2023-10-31T11:51:38;1.90;;;1.13;;
27491;SDS011;14927;51.210;6.838;2023-10-31T11:54:22;2.08;;;0.90;;
27491;SDS011;14927;51.210;6.838;2023-10-31T11:57:07;1.17;;;0.60;;
27491;SDS011;14927;51.210;6.838;2023-10-31T11:59:51;1.60;;;0.70;;
27491;SDS011;14927;51.210;6.838;2023-10-31T12:02:36;1.65;;;0.70;;
27491;SDS011;14927;51.210;6.838;2023-10-31T12:05:21;3.40;;;0.98;;
27491;SDS011;14927;51.210;6.838;2023-10-31T12:08:06;1.73;;;0.80;;
27491;SDS011;14927;51.210;6.838;2023-10-31T12:10:50;3.35;;;0.80;;
27491;SDS011;14927;51.210;6.838;2023-10-31T12:13:36;2.08;;;0.77;;
27491;SDS011;14927;51.210;6.838;2023-10-31T12:16:24;2.63;;;0.98;;
27491;SDS011;14927;51.210;6.838;2023-10-31T12:19:10;3.47;;;0.80;;
27491;SDS011;14927;51.210;6.838;2023-10-31T12:21:55;2.15;;;0.70;;
27491;SDS011;14927;51.210;6.838;2023-10-31T12:24:40;2.25;;;0.90;;
27491;SDS011;14927;51.210;6.838;2023-10-31T12:27:24;2.30;;;1.38;;
27491;SDS011;14927;51.210;6.838;2023-10-31T12:30:09;4.13;;;0.98;;
27491;SDS011;14927;51.210;6.838;2023-10-31T12:32:55;2.53;;;0.93;;
27491;SDS011;14927;51.210;6.838;2023-10-31T12:35:40;4.15;;;1.08;;
27491;SDS011;14927;51.210;6.838;2023-10-31T12:38:26;2.33;;;1.10;;
27491;SDS011;14927;51.210;6.838;2023-10-31T12:41:12;1.35;;;0.88;;
27491;SDS011;14927;51.210;6.838;2023-10-31T12:43:56;3.33;;;0.93;;
27491;SDS011;14927;51.210;6.838;2023-10-31T12:46:41;3.55;;;1.17;;
27491;SDS011;14927;51.210;6.838;2023-10-31T12:49:26;5.53;;;1.00;;
27491;SDS011;14927;51.210;6.838;2023-10-31T12:52:11;5.18;;;1.05;;
27491;SDS011;14927;51.210;6.838;2023-10-31T12:54:56;6.40;;;1.10;;
27491;SDS011;14927;51.210;6.838;2023-10-31T12:57:41;1.77;;;0.55;;
27491;SDS011;14927;51.210;6.838;2023-10-31T13:00:33;2.30;;;0.80;;
27491;SDS011;14927;51.210;6.838;2023-10-31T13:03:19;3.38;;;0.85;;
27491;SDS011;14927;51.210;6.838;2023-10-31T13:06:13;3.88;;;0.98;;
27491;SDS011;14927;51.210;6.838;2023-10-31T13:08:59;2.20;;;0.88;;
27491;SDS011;14927;51.210;6.838;2023-10-31T13:11:46;4.68;;;0.80;;
27491;SDS011;14927;51.210;6.838;2023-10-31T13:14:32;4.55;;;0.70;;
27491;SDS011;14927;51.210;6.838;2023-10-31T13:17:17;2.03;;;0.98;;
27491;SDS011;14927;51.210;6.838;2023-10-31T13:20:02;3.90;;;1.27;;
27491;SDS011;14927;51.210;6.838;2023-10-31T13:22:50;8.10;;;1.67;;
27491;SDS011;14927;51.210;6.838;2023-10-31T13:25:34;3.60;;;1.58;;
27491;SDS011;14927;51.210;6.838;2023-10-31T13:28:19;2.75;;;1.10;;
27491;SDS011;14927;51.210;6.838;2023-10-31T13:31:03;6.07;;;1.00;;
27491;SDS011;14927;51.210;6.838;2023-10-31T13:33:49;5.30;;;0.77;;
27491;SDS011;14927;51.210;6.838;2023-10-31T13:36:34;2.55;;;0.82;;
27491;SDS011;14927;51.210;6.838;2023-10-31T13:39:20;3.90;;;1.23;;
27491;SDS011;14927;51.210;6.838;2023-10-31T13:42:05;1.33;;;0.60;;
27491;SDS011;14927;51.210;6.838;2023-10-31T13:44:50;2.13;;;0.75;;
27491;SDS011;14927;51.210;6.838;2023-10-31T13:47:34;6.15;;;0.80;;
27491;SDS011;14927;51.210;6.838;2023-10-31T13:50:21;2.35;;;0.80;;
27491;SDS011;14927;51.210;6.838;2023-10-31T13:53:06;2.10;;;0.77;;
27491;SDS011;14927;51.210;6.838;2023-10-31T13:55:52;4.80;;;1.05;;
27491;SDS011;14927;51.210;6.838;2023-10-31T13:58:36;4.35;;;0.90;;
27491;SDS011;14927;51.210;6.838;2023-10-31T14:01:21;4.70;;;0.73;;
27491;SDS011;14927;51.210;6.838;2023-10-31T14:04:12;8.65;;;2.72;;
27491;SDS011;14927;51.210;6.838;2023-10-31T14:06:57;2.08;;;0.57;;
27491;SDS011;14927;51.210;6.838;2023-10-31T14:09:42;3.33;;;0.85;;
27491;SDS011;14927;51.210;6.838;2023-10-31T14:12:27;1.85;;;0.75;;
27491;SDS011;14927;51.210;6.838;2023-10-31T14:15:12;6.22;;;0.90;;
27491;SDS011;14927;51.210;6.838;2023-10-31T14:17:57;5.40;;;1.17;;
27491;SDS011;14927;51.210;6.838;2023-10-31T14:20:42;3.30;;;0.77;;
27491;SDS011;14927;51.210;6.838;2023-10-31T14:23:27;2.63;;;0.75;;
27491;SDS011;14927;51.210;6.838;2023-10-31T14:26:11;3.47;;;0.90;;
27491;SDS011;14927;51.210;6.838;2023-10-31T14:28:56;3.92;;;0.80;;
27491;SDS011;14927;51.210;6.838;2023-10-31T14:31:41;3.75;;;1.13;;
27491;SDS011;14927;51.210;6.838;2023-10-31T14:34:26;4.40;;;1.00;;
27491;SDS011;14927;51.210;6.838;2023-10-31T14:37:10;4.68;;;0.80;;
27491;SDS011;14927;51.210;6.838;2023-10-31T14:39:55;2.72;;;0.88;;
27491;SDS011;14927;51.210;6.838;2023-10-31T14:42:43;5.97;;;1.10;;
27491;SDS011;14927;51.210;6.838;2023-10-31T14:45:27;5.13;;;1.33;;
27491;SDS011;14927;51.210;6.838;2023-10-31T14:48:12;7.18;;;1.40;;
27491;SDS011;14927;51.210;6.838;2023-10-31T14:51:00;4.90;;;1.33;;
27491;SDS011;14927;51.210;6.838;2023-10-31T14:53:46;5.47;;;0.90;;
27491;SDS011;14927;51.210;6.838;2023-10-31T14:56:31;7.20;;;1.52;;
27491;SDS011;14927;51.210;6.838;2023-10-31T14:59:15;5.03;;;1.50;;
27491;SDS011;14927;51.210;6.838;2023-10-31T15:02:00;3.38;;;0.90;;
27491;SDS011;14927;51.210;6.838;2023-10-31T15:04:45;5.30;;;1.10;;
27491;SDS011;14927;51.210;6.838;2023-10-31T15:07:29;2.45;;;1.02;;
27491;SDS011;14927;51.210;6.838;2023-10-31T15:10:14;6.60;;;1.42;;
27491;SDS011;14927;51.210;6.838;2023-10-31T15:12:59;2.83;;;0.77;;
27491;SDS011;14927;51.210;6.838;2023-10-31T15:15:43;6.47;;;1.40;;
27491;SDS011;14927;51.210;6.838;2023-10-31T15:18:28;6.50;;;1.45;;
27491;SDS011;14927;51.210;6.838;2023-10-31T15:21:12;4.82;;;1.10;;
27491;SDS011;14927;51.210;6.838;2023-10-31T15:23:57;3.90;;;1.23;;
27491;SDS011;14927;51.210;6.838;2023-10-31T15:26:42;4.75;;;1.45;;
27491;SDS011;14927;51.210;6.838;2023-10-31T15:29:27;7.10;;;1.48;;
27491;SDS011;14927;51.210;6.838;2023-10-31T15:32:11;8.68;;;1.23;;
27491;SDS011;14927;51.210;6.838;2023-10-31T15:34:56;9.18;;;1.55;;
27491;SDS011;14927;51.210;6.838;2023-10-31T15:37:42;2.72;;;1.10;;
27491;SDS011;14927;51.210;6.838;2023-10-31T15:40:26;6.20;;;1.40;;
27491;SDS011;14927;51.210;6.838;2023-10-31T15:43:12;3.63;;;1.00;;
27491;SDS011;14927;51.210;6.838;2023-10-31T15:45:57;6.22;;;1.40;;
27491;SDS011;14927;51.210;6.838;2023-10-31T15:48:41;5.32;;;1.13;;
27491;SDS011;14927;51.210;6.838;2023-10-31T15:51:26;4.78;;;1.20;;
27491;SDS011;14927;51.210;6.838;2023-10-31T15:54:11;8.00;;;1.88;;
27491;SDS011;14927;51.210;6.838;2023-10-31T15:56:55;3.90;;;1.20;;
27491;SDS011;14927;51.210;6.838;2023-10-31T15:59:40;2.67;;;0.90;;
27491;SDS011;14927;51.210;6.838;2023-10-31T16:02:24;2.70;;;0.93;;
27491;SDS011;14927;51.210;6.838;2023-10-31T16:05:09;5.70;;;1.13;;
27491;SDS011;14927;51.210;6.838;2023-10-31T16:07:54;6.45;;;1.33;;
27491;SDS011;14927;51.210;6.838;2023-10-31T16:10:38;3.85;;;0.82;;
27491;SDS011;14927;51.210;6.838;2023-10-31T16:13:23;1.67;;;0.60;;
27491;SDS011;14927;51.210;6.838;2023-10-31T16:16:08;4.18;;;0.90;;
27491;SDS011;14927;51.210;6.838;2023-10-31T16:18:54;2.33;;;0.65;;
27491;SDS011;14927;51.210;6.838;2023-10-31T16:21:39;1.70;;;0.50;;
27491;SDS011;14927;51.210;6.838;2023-10-31T16:24:24;1.75;;;0.60;;
27491;SDS011;14927;51.210;6.838;2023-10-31T16:27:08;2.35;;;0.60;;
27491;SDS011;14927;51.210;6.838;2023-10-31T16:29:53;2.60;;;0.80;;
27491;SDS011;14927;51.210;6.838;2023-10-31T16:32:37;2.05;;;0.52;;
27491;SDS011;14927;51.210;6.838;2023-10-31T16:35:22;1.27;;;0.68;;
27491;SDS011;14927;51.210;6.838;2023-10-31T16:38:06;1.77;;;0.68;;
27491;SDS011;14927;51.210;6.838;2023-10-31T16:40:51;3.15;;;0.80;;
27491;SDS011;14927;51.210;6.838;2023-10-31T16:43:36;5.10;;;1.42;;
27491;SDS011;14927;51.210;6.838;2023-10-31T16:46:21;2.33;;;0.93;;